Time;durP1;ratioP1;P1;durP2;ratioP2;P2;SDS_P1;SDS_P2;PMS_P1;PMS_P2;Temp;Humidity;BMP_temperature;BMP_pressure;BME280_temperature;BME280_humidity;BME280_pressure;Samples;Min_cycle;Max_cycle;Signal;HPM_P1;HPM_P2
2023/06/17 00:00:30;;;;;;;12.13;8.45;;;16.10;82.20;;;;;;5072137;28;20406;-85
2023/06/17 00:02:56;;;;;;;12.07;6.28;;;16.00;83.60;;;;;;5055760;28;20098;-85
2023/06/17 00:05:24;;;;;;;11.55;9.20;;;15.90;83.30;;;;;;5073623;28;20283;-85
2023/06/17 00:07:50;;;;;;;12.65;7.55;;;15.90;86.20;;;;;;5072435;28;20041;-85
2023/06/17 00:10:15;;;;;;;12.68;7.15;;;15.80;85.70;;;;;;5072254;28;20037;-85
2023/06/17 00:12:41;;;;;;;12.10;8.90;;;15.70;86.60;;;;;;5073628;28;20065;-85
2023/06/17 00:15:07;;;;;;;12.13;9.60;;;15.80;89.70;;;;;;5055553;28;20040;-85
2023/06/17 00:17:33;;;;;;;10.90;6.70;;;15.80;90.50;;;;;;5072262;28;20041;-85
2023/06/17 00:20:11;;;;;;;13.45;8.10;;;15.80;90.30;;;;;;5054986;28;20166;-85
2023/06/17 00:22:38;;;;;;;11.85;8.55;;;15.70;91.10;;;;;;5071996;28;20132;-85
2023/06/17 00:25:07;;;;;;;12.60;9.20;;;15.70;92.40;;;;;;5055706;28;20040;-85
2023/06/17 00:27:33;;;;;;;12.35;9.32;;;15.70;93.30;;;;;;5071982;28;20043;-85
2023/06/17 00:29:59;;;;;;;11.40;9.18;;;15.70;93.90;;;;;;5071787;28;20037;-85
2023/06/17 00:32:30;;;;;;;11.18;8.82;;;15.70;94.30;;;;;;5072043;28;20063;-85
2023/06/17 00:34:56;;;;;;;13.20;9.80;;;15.70;95.20;;;;;;5055459;28;20036;-85
2023/06/17 00:37:22;;;;;;;13.45;10.18;;;15.60;96.30;;;;;;5055201;28;20551;-84
2023/06/17 00:39:48;;;;;;;12.60;9.88;;;15.60;97.10;;;;;;5055112;28;20460;-85
2023/06/17 00:42:13;;;;;;;15.27;7.22;;;15.50;97.80;;;;;;5072254;28;20127;-85
2023/06/17 00:44:40;;;;;;;13.23;7.20;;;15.50;96.80;;;;;;5072281;28;20482;-84
2023/06/17 00:47:07;;;;;;;14.15;10.77;;;15.40;97.80;;;;;;5071558;28;20040;-84
2023/06/17 00:49:36;;;;;;;13.50;11.40;;;15.40;99.90;;;;;;5071419;28;20468;-84
2023/06/17 00:52:07;;;;;;;12.07;7.57;;;15.50;99.90;;;;;;5071772;28;20071;-84
2023/06/17 00:54:34;;;;;;;15.00;11.63;;;15.40;99.90;;;;;;5071718;28;20066;-85
2023/06/17 00:57:01;;;;;;;15.32;11.32;;;15.40;99.90;;;;;;5071476;28;20052;-84
2023/06/17 00:59:32;;;;;;;14.50;8.45;;;15.40;99.90;;;;;;5071121;28;20051;-84
2023/06/17 01:01:57;;;;;;;13.27;11.23;;;15.30;99.90;;;;;;5054579;28;20090;-85
2023/06/17 01:04:23;;;;;;;13.95;11.48;;;15.30;99.90;;;;;;5053837;28;20040;-84
2023/06/17 01:07:09;;;;;;;13.23;11.40;;;15.30;99.90;;;;;;5071548;28;20044;-85
2023/06/17 01:09:38;;;;;;;14.80;11.55;;;15.30;99.90;;;;;;5054561;28;20024;-85
2023/06/17 01:12:07;;;;;;;13.05;8.43;;;15.30;99.90;;;;;;5070975;28;20044;-84
2023/06/17 01:14:33;;;;;;;13.88;7.63;;;15.20;99.90;;;;;;5054418;28;20075;-85
2023/06/17 01:17:01;;;;;;;13.70;11.90;;;15.10;99.90;;;;;;5071072;28;20040;-85
2023/06/17 01:19:27;;;;;;;13.77;11.77;;;15.10;99.90;;;;;;5054137;28;20386;-84
2023/06/17 01:21:53;;;;;;;13.35;11.95;;;15.00;99.90;;;;;;5070809;28;20051;-85
2023/06/17 01:24:29;;;;;;;14.70;12.82;;;15.00;99.90;;;;;;5070946;28;20045;-84
2023/06/17 01:26:57;;;;;;;15.63;13.20;;;15.00;99.90;;;;;;5053991;28;20568;-85
2023/06/17 01:29:23;;;;;;;15.93;13.50;;;14.90;99.90;;;;;;5054321;28;20075;-84
2023/06/17 01:31:50;;;;;;;14.50;13.00;;;14.90;99.90;;;;;;5070490;28;20044;-85
2023/06/17 01:34:25;;;;;;;14.88;7.88;;;14.80;99.90;;;;;;5070796;28;20044;-85
2023/06/17 01:36:53;;;;;;;12.73;8.18;;;14.70;99.90;;;;;;5070827;28;20040;-84
2023/06/17 01:39:23;;;;;;;17.00;14.45;;;14.50;99.90;;;;;;5053991;28;20044;-85
2023/06/17 01:41:53;;;;;;;13.65;8.52;;;14.50;99.90;;;;;;5070348;28;20054;-84
2023/06/17 01:44:20;;;;;;;13.35;8.75;;;14.50;99.90;;;;;;5070631;28;20123;-84
2023/06/17 01:46:46;;;;;;;14.40;12.77;;;14.40;99.90;;;;;;5054271;28;20032;-85
2023/06/17 01:49:11;;;;;;;14.15;8.27;;;14.50;99.90;;;;;;5070498;28;20473;-84
2023/06/17 01:51:37;;;;;;;14.35;12.85;;;14.50;99.90;;;;;;5070355;28;20036;-84
2023/06/17 01:54:03;;;;;;;17.48;14.40;;;14.60;99.90;;;;;;5070455;28;20489;-84
2023/06/17 01:56:29;;;;;;;16.30;14.20;;;14.70;99.90;;;;;;5070323;28;20036;-85
2023/06/17 01:58:54;;;;;;;17.27;15.25;;;14.80;99.90;;;;;;5070492;28;20594;-84
2023/06/17 02:01:20;;;;;;;14.50;9.00;;;14.90;99.90;;;;;;5070166;28;20186;-85
2023/06/17 02:03:46;;;;;;;14.70;8.10;;;14.80;99.90;;;;;;5053687;28;20163;-84
2023/06/17 02:06:11;;;;;;;17.83;8.77;;;14.80;99.90;;;;;;5070717;28;20490;-85
2023/06/17 02:08:38;;;;;;;18.52;15.70;;;14.80;99.90;;;;;;5070383;28;20619;-84
2023/06/17 02:11:04;;;;;;;18.95;16.75;;;14.90;99.90;;;;;;5053513;28;20498;-85
2023/06/17 02:13:30;;;;;;;18.83;16.77;;;15.00;99.90;;;;;;5070271;28;20111;-84
2023/06/17 02:15:55;;;;;;;19.88;16.30;;;15.10;99.90;;;;;;5072613;28;20135;-84
2023/06/17 02:18:22;;;;;;;17.25;9.55;;;15.20;99.90;;;;;;5058039;28;20097;-84
2023/06/17 02:20:48;;;;;;;17.27;10.05;;;15.10;99.90;;;;;;5074343;28;20044;-85
2023/06/17 02:23:13;;;;;;;20.92;17.92;;;15.10;99.90;;;;;;5074439;28;20051;-85
2023/06/17 02:25:39;;;;;;;22.45;11.70;;;15.20;99.90;;;;;;5057641;28;20036;-84
2023/06/17 02:28:06;;;;;;;20.98;11.80;;;15.20;99.90;;;;;;5057660;28;20451;-84
2023/06/17 02:30:32;;;;;;;23.75;18.25;;;15.20;99.90;;;;;;5073872;28;20041;-85
2023/06/17 02:32:58;;;;;;;22.58;13.07;;;15.30;99.90;;;;;;5057527;28;20047;-85
2023/06/17 02:35:23;;;;;;;21.90;18.50;;;15.30;99.90;;;;;;5074136;28;20040;-85
2023/06/17 02:37:49;;;;;;;22.33;19.42;;;15.40;99.90;;;;;;5057387;28;20047;-84
2023/06/17 02:40:15;;;;;;;23.83;13.40;;;15.40;99.90;;;;;;5057451;28;20037;-84
2023/06/17 02:42:40;;;;;;;24.45;21.77;;;15.40;99.90;;;;;;5073880;28;20557;-85
2023/06/17 02:45:07;;;;;;;25.48;21.70;;;15.50;99.90;;;;;;5075400;28;20041;-85
2023/06/17 02:47:33;;;;;;;23.38;13.60;;;15.50;99.90;;;;;;5057211;28;20125;-85
2023/06/17 02:49:59;;;;;;;24.20;14.75;;;15.50;99.90;;;;;;5073532;28;20409;-85
2023/06/17 02:52:25;;;;;;;19.92;13.18;;;15.50;99.90;;;;;;5057106;28;20032;-84
2023/06/17 02:54:50;;;;;;;25.27;22.58;;;15.50;99.90;;;;;;5057154;28;20050;-85
2023/06/17 02:57:16;;;;;;;26.63;23.15;;;15.60;99.90;;;;;;5073622;28;20044;-84
2023/06/17 02:59:42;;;;;;;26.10;22.45;;;15.60;99.90;;;;;;5073466;28;20090;-84
2023/06/17 03:02:08;;;;;;;22.52;13.98;;;15.70;99.90;;;;;;5057495;28;20032;-84
2023/06/17 03:04:37;;;;;;;26.05;23.27;;;15.70;99.90;;;;;;5074144;28;20040;-84
2023/06/17 03:07:04;;;;;;;24.98;22.38;;;15.70;99.90;;;;;;5073598;28;20032;-85
2023/06/17 03:09:30;;;;;;;20.80;14.35;;;15.70;99.90;;;;;;5056861;28;20393;-84
2023/06/17 03:11:58;;;;;;;26.70;23.63;;;15.70;99.90;;;;;;5056607;28;20490;-85
2023/06/17 03:14:24;;;;;;;23.45;15.18;;;15.70;99.90;;;;;;5056753;28;20048;-85
2023/06/17 03:16:50;;;;;;;25.05;22.45;;;15.70;99.90;;;;;;5056797;28;20051;-85
2023/06/17 03:19:16;;;;;;;25.08;22.52;;;15.70;99.90;;;;;;5056511;28;20036;-84
2023/06/17 03:21:42;;;;;;;25.00;22.30;;;15.70;99.90;;;;;;5056311;28;20429;-85
2023/06/17 03:24:08;;;;;;;26.80;24.02;;;15.80;99.90;;;;;;5073230;28;20120;-85
2023/06/17 03:26:34;;;;;;;25.45;22.95;;;15.80;99.90;;;;;;5072557;28;20036;-84
2023/06/17 03:29:00;;;;;;;28.98;25.90;;;15.80;99.90;;;;;;5056550;28;20447;-85
2023/06/17 03:31:26;;;;;;;22.80;15.65;;;15.80;99.90;;;;;;5056044;28;20044;-85
2023/06/17 03:33:52;;;;;;;30.50;27.42;;;15.80;99.90;;;;;;5072895;28;20047;-85
2023/06/17 03:36:24;;;;;;;23.48;15.13;;;15.70;99.90;;;;;;5073312;28;20051;-85
2023/06/17 03:38:50;;;;;;;25.85;17.52;;;15.60;99.90;;;;;;5056682;28;20046;-85
2023/06/17 03:41:16;;;;;;;28.33;25.50;;;15.60;99.90;;;;;;5072571;28;20078;-85
2023/06/17 03:43:42;;;;;;;29.40;26.40;;;15.60;99.90;;;;;;5056159;28;20465;-85
2023/06/17 03:46:07;;;;;;;28.88;25.52;;;15.60;99.90;;;;;;5073102;28;20482;-85
2023/06/17 03:48:33;;;;;;;22.98;15.70;;;15.70;99.90;;;;;;5056212;28;20510;-84
2023/06/17 03:51:00;;;;;;;23.95;17.33;;;15.70;99.90;;;;;;5072441;28;20119;-85
2023/06/17 03:53:26;;;;;;;23.60;16.10;;;15.70;99.90;;;;;;5073011;28;20045;-85
2023/06/17 03:55:52;;;;;;;26.15;23.45;;;15.60;99.90;;;;;;5056417;28;20620;-84
2023/06/17 03:58:18;;;;;;;29.58;26.23;;;15.70;99.90;;;;;;5072863;28;20691;-84
2023/06/17 04:00:43;;;;;;;27.23;24.48;;;15.70;99.90;;;;;;5055821;28;20540;-84
2023/06/17 04:03:11;;;;;;;23.08;17.65;;;15.80;99.90;;;;;;5072334;28;20033;-85
2023/06/17 04:05:37;;;;;;;22.50;15.60;;;15.80;99.90;;;;;;5055857;28;20047;-84
2023/06/17 04:08:06;;;;;;;27.27;24.00;;;15.80;99.90;;;;;;5055758;28;20505;-85
2023/06/17 04:10:32;;;;;;;30.85;27.60;;;15.80;99.90;;;;;;5072083;28;20036;-84
2023/06/17 04:12:58;;;;;;;31.52;28.25;;;15.90;99.90;;;;;;5072278;28;20097;-84
2023/06/17 04:15:24;;;;;;;31.05;27.73;;;15.90;99.90;;;;;;5055563;28;20044;-84
2023/06/17 04:17:50;;;;;;;23.02;15.20;;;15.90;99.90;;;;;;5072139;28;20067;-84
2023/06/17 04:20:15;;;;;;;20.60;16.27;;;15.80;99.90;;;;;;5055116;28;20048;-85
2023/06/17 04:22:42;;;;;;;26.80;13.82;;;15.70;99.90;;;;;;5072236;28;20041;-85
2023/06/17 04:25:10;;;;;;;32.83;29.30;;;15.70;99.90;;;;;;5055699;28;20120;-84
2023/06/17 04:27:38;;;;;;;32.55;29.02;;;15.70;99.90;;;;;;5055527;28;20032;-84
2023/06/17 04:30:11;;;;;;;33.05;29.50;;;15.70;99.90;;;;;;5072887;28;20028;-84
2023/06/17 04:32:38;;;;;;;33.22;29.67;;;15.70;99.90;;;;;;5055313;28;20040;-84
2023/06/17 04:35:05;;;;;;;27.30;18.20;;;15.70;99.90;;;;;;5071778;28;20049;-84
2023/06/17 04:37:32;;;;;;;32.80;29.35;;;15.70;99.90;;;;;;5071944;28;20037;-85
2023/06/17 04:39:58;;;;;;;33.00;27.98;;;15.70;99.90;;;;;;5070596;28;20162;-84
2023/06/17 04:42:25;;;;;;;29.80;26.60;;;15.80;99.90;;;;;;5071587;28;20082;-85
2023/06/17 04:44:51;;;;;;;29.40;26.42;;;15.80;99.90;;;;;;5071850;28;20076;-85
2023/06/17 04:47:19;;;;;;;29.23;26.23;;;15.90;99.90;;;;;;5071646;28;20040;-84
2023/06/17 04:49:47;;;;;;;28.98;26.05;;;15.90;99.90;;;;;;5054628;28;20036;-84
2023/06/17 04:52:19;;;;;;;28.73;25.80;;;16.00;99.90;;;;;;5070933;28;20032;-85
2023/06/17 04:54:48;;;;;;;24.88;16.77;;;16.00;99.90;;;;;;5071564;28;20374;-85
2023/06/17 04:57:14;;;;;;;24.38;16.63;;;16.00;99.90;;;;;;5054698;28;20047;-85
2023/06/17 04:59:40;;;;;;;23.83;19.85;;;16.00;99.90;;;;;;5054527;28;20040;-85
2023/06/17 05:02:06;;;;;;;32.25;28.92;;;16.00;99.90;;;;;;5071501;28;20040;-84
2023/06/17 05:04:31;;;;;;;31.52;28.30;;;16.00;99.90;;;;;;5071285;28;20102;-85
2023/06/17 05:06:57;;;;;;;30.60;27.60;;;16.00;99.90;;;;;;5054760;28;20068;-85
2023/06/17 05:09:23;;;;;;;24.85;17.90;;;15.90;99.90;;;;;;5054823;28;20040;-85
2023/06/17 05:11:49;;;;;;;30.20;27.08;;;15.80;99.90;;;;;;5070662;28;20489;-85
2023/06/17 05:14:14;;;;;;;31.23;28.08;;;15.80;99.90;;;;;;5071670;28;20527;-84
2023/06/17 05:16:40;;;;;;;29.98;26.77;;;15.80;99.90;;;;;;5071103;28;20036;-85
2023/06/17 05:19:06;;;;;;;30.55;27.35;;;15.80;99.90;;;;;;5054407;28;20044;-85
2023/06/17 05:21:31;;;;;;;30.63;27.35;;;15.70;99.90;;;;;;5054082;28;20418;-84
2023/06/17 05:23:57;;;;;;;28.15;25.23;;;15.70;99.90;;;;;;5071026;28;20064;-84
2023/06/17 05:26:22;;;;;;;27.80;25.00;;;15.80;99.90;;;;;;5072276;28;20076;-85
2023/06/17 05:28:48;;;;;;;20.90;15.20;;;15.80;99.90;;;;;;5071209;28;20036;-85
2023/06/17 05:31:14;;;;;;;27.30;17.08;;;15.80;99.90;;;;;;5070740;28;20494;-85
2023/06/17 05:33:40;;;;;;;32.35;28.95;;;15.80;99.90;;;;;;5072269;28;20044;-85
2023/06/17 05:36:06;;;;;;;29.67;26.42;;;15.80;99.90;;;;;;5054164;28;20067;-84
2023/06/17 05:38:32;;;;;;;31.33;28.15;;;15.80;99.90;;;;;;5054149;28;20033;-85
2023/06/17 05:40:57;;;;;;;29.35;26.35;;;15.90;99.90;;;;;;5070336;28;20061;-85
2023/06/17 05:43:27;;;;;;;22.38;15.88;;;15.90;99.90;;;;;;5053922;28;20111;-84
2023/06/17 05:45:52;;;;;;;26.50;23.77;;;15.90;99.90;;;;;;5054273;28;20051;-85
2023/06/17 05:48:18;;;;;;;23.73;17.00;;;15.90;99.90;;;;;;5053894;28;20032;-85
2023/06/17 05:50:44;;;;;;;27.20;24.40;;;16.00;99.90;;;;;;5070034;28;20508;-85
2023/06/17 05:53:09;;;;;;;25.92;23.23;;;16.00;99.90;;;;;;5070556;28;20037;-85
2023/06/17 05:55:35;;;;;;;25.15;22.70;;;16.10;99.90;;;;;;5053790;28;20460;-84
2023/06/17 05:58:01;;;;;;;25.08;14.65;;;16.20;99.90;;;;;;5070478;28;20046;-85
2023/06/17 06:00:26;;;;;;;21.98;14.38;;;16.10;99.90;;;;;;5070101;28;20036;-85
2023/06/17 06:02:52;;;;;;;25.13;22.70;;;16.00;99.90;;;;;;5053743;28;20041;-85
2023/06/17 06:05:18;;;;;;;24.77;22.35;;;16.10;99.90;;;;;;5070467;28;20052;-85
2023/06/17 06:07:43;;;;;;;22.58;20.27;;;16.10;99.90;;;;;;5070745;28;20044;-85
2023/06/17 06:10:10;;;;;;;24.63;22.27;;;16.20;99.90;;;;;;5069981;28;20490;-84
2023/06/17 06:12:36;;;;;;;24.13;21.73;;;16.30;99.90;;;;;;5053474;28;20028;-85
2023/06/17 06:15:02;;;;;;;22.55;14.65;;;16.40;99.90;;;;;;5070385;28;20148;-84
2023/06/17 06:17:28;;;;;;;24.48;22.17;;;16.40;99.90;;;;;;5053641;28;20162;-84
2023/06/17 06:19:53;;;;;;;21.80;19.70;;;16.40;99.90;;;;;;5070224;28;20064;-84
2023/06/17 06:22:19;;;;;;;25.77;23.23;;;16.50;99.90;;;;;;5070098;28;20036;-85
2023/06/17 06:24:45;;;;;;;23.50;21.08;;;16.50;99.90;;;;;;5070149;28;20410;-85
2023/06/17 06:27:10;;;;;;;23.67;21.27;;;16.50;99.90;;;;;;5070132;28;20043;-84
2023/06/17 06:29:36;;;;;;;23.38;20.98;;;16.60;99.90;;;;;;5070229;28;20043;-84
2023/06/17 06:32:02;;;;;;;26.80;22.50;;;16.60;99.90;;;;;;5053476;28;20596;-85
2023/06/17 06:34:28;;;;;;;19.13;13.93;;;16.70;99.90;;;;;;5070337;28;20498;-85
2023/06/17 06:36:56;;;;;;;25.55;22.92;;;16.60;99.90;;;;;;5070466;28;20056;-85
2023/06/17 06:39:22;;;;;;;19.60;13.70;;;16.60;99.90;;;;;;5053286;28;20041;-85
2023/06/17 06:41:48;;;;;;;25.13;22.63;;;16.60;99.90;;;;;;5070042;28;20052;-85
2023/06/17 06:44:13;;;;;;;22.83;15.18;;;16.70;99.90;;;;;;5053246;28;20044;-85
2023/06/17 06:46:39;;;;;;;20.35;13.70;;;16.60;99.90;;;;;;5053635;28;20028;-85
2023/06/17 06:49:05;;;;;;;23.38;20.98;;;16.60;99.90;;;;;;5070074;28;20040;-85
2023/06/17 06:51:32;;;;;;;24.60;22.05;;;16.70;99.90;;;;;;5069692;28;20033;-85
2023/06/17 06:53:57;;;;;;;25.85;23.08;;;16.90;99.90;;;;;;5070171;28;20040;-85
2023/06/17 06:56:24;;;;;;;22.95;16.25;;;16.90;99.90;;;;;;5053317;28;20083;-85
2023/06/17 06:58:49;;;;;;;23.33;20.90;;;16.90;99.90;;;;;;5070244;28;20041;-85
2023/06/17 07:01:15;;;;;;;25.45;22.92;;;17.00;99.90;;;;;;5069825;28;20398;-85
2023/06/17 07:03:41;;;;;;;26.02;23.23;;;17.10;99.90;;;;;;5073118;28;20037;-85
2023/06/17 07:06:07;;;;;;;23.65;17.27;;;17.20;99.90;;;;;;5073637;28;20040;-86
2023/06/17 07:08:33;;;;;;;26.38;23.67;;;17.20;99.90;;;;;;5057093;28;20036;-86
2023/06/17 07:10:59;;;;;;;24.33;21.73;;;17.30;99.90;;;;;;5073128;28;20040;-86
2023/06/17 07:13:24;;;;;;;28.20;25.38;;;17.40;99.90;;;;;;5073263;28;20127;-86
2023/06/17 07:15:50;;;;;;;25.45;22.33;;;17.40;99.90;;;;;;5073519;28;20039;-85
2023/06/17 07:18:15;;;;;;;24.58;22.05;;;17.40;99.90;;;;;;5056911;28;20045;-85
2023/06/17 07:20:41;;;;;;;24.30;21.92;;;17.50;99.90;;;;;;5073291;28;20120;-85
2023/06/17 07:23:06;;;;;;;24.30;21.88;;;17.60;99.90;;;;;;5073057;28;20456;-85
2023/06/17 07:25:32;;;;;;;24.38;21.98;;;17.70;99.90;;;;;;5073091;28;20037;-86
2023/06/17 07:27:59;;;;;;;24.35;21.80;;;17.80;99.90;;;;;;5073278;28;20075;-85
2023/06/17 07:30:26;;;;;;;19.85;16.83;;;17.90;99.90;;;;;;5056376;28;20394;-85
2023/06/17 07:32:52;;;;;;;23.67;21.38;;;17.90;99.90;;;;;;5056455;28;20044;-86
2023/06/17 07:35:18;;;;;;;23.70;21.27;;;18.10;99.90;;;;;;5056409;28;20037;-86
2023/06/17 07:37:43;;;;;;;25.02;22.15;;;18.20;99.90;;;;;;5074284;28;20052;-85
2023/06/17 07:40:11;;;;;;;25.95;23.35;;;18.20;99.90;;;;;;5072666;28;20040;-86
2023/06/17 07:42:37;;;;;;;25.38;22.63;;;18.30;99.90;;;;;;5073101;28;20055;-86
2023/06/17 07:45:05;;;;;;;25.58;22.98;;;18.30;99.90;;;;;;5073127;28;20044;-85
2023/06/17 07:47:30;;;;;;;25.33;22.77;;;18.30;99.90;;;;;;5073165;28;20044;-85
2023/06/17 07:49:56;;;;;;;26.52;23.77;;;18.30;99.90;;;;;;5072505;28;20520;-85
2023/06/17 07:52:22;;;;;;;25.90;23.10;;;18.20;99.90;;;;;;5072434;28;20036;-86
2023/06/17 07:54:47;;;;;;;24.33;21.83;;;18.20;99.90;;;;;;5072928;28;20043;-86
2023/06/17 07:57:14;;;;;;;23.48;21.15;;;18.20;99.90;;;;;;5072782;28;20405;-86
2023/06/17 07:59:42;;;;;;;25.05;22.40;;;18.30;99.90;;;;;;5072407;28;20071;-86
2023/06/17 08:02:08;;;;;;;22.85;20.50;;;18.30;99.90;;;;;;5055827;28;20028;-86
2023/06/17 08:04:33;;;;;;;22.65;20.48;;;18.30;99.90;;;;;;5072469;28;20098;-86
2023/06/17 08:06:59;;;;;;;23.45;21.05;;;18.50;99.90;;;;;;5072430;28;20047;-86
2023/06/17 08:09:25;;;;;;;23.25;20.70;;;18.60;99.90;;;;;;5055706;28;20036;-86
2023/06/17 08:11:50;;;;;;;23.42;21.17;;;18.80;99.90;;;;;;5072259;28;20043;-86
2023/06/17 08:14:16;;;;;;;23.33;20.95;;;18.90;99.90;;;;;;5072166;28;20501;-86
2023/06/17 08:16:42;;;;;;;23.60;21.15;;;19.00;99.90;;;;;;5072624;28;20379;-86
2023/06/17 08:19:08;;;;;;;23.98;19.58;;;19.10;99.90;;;;;;5055761;28;20127;-85
2023/06/17 08:21:34;;;;;;;22.85;20.50;;;19.20;99.90;;;;;;5072199;28;20552;-86
2023/06/17 08:24:22;;;;;;;22.67;20.42;;;19.20;99.90;;;;;;5071772;28;20051;-86
2023/06/17 08:26:49;;;;;;;21.70;19.48;;;19.30;99.90;;;;;;5071820;28;20072;-86
2023/06/17 08:29:15;;;;;;;24.20;21.73;;;19.40;99.90;;;;;;5071969;28;20468;-86
2023/06/17 08:31:47;;;;;;;22.95;20.55;;;19.40;99.90;;;;;;5071786;28;20036;-86
2023/06/17 08:34:13;;;;;;;24.40;21.97;;;19.50;99.90;;;;;;5071976;28;20577;-86
2023/06/17 08:36:44;;;;;;;22.90;20.40;;;19.60;99.90;;;;;;5071779;28;20086;-86
2023/06/17 08:39:10;;;;;;;21.67;19.40;;;19.60;99.90;;;;;;5072162;28;20040;-86
2023/06/17 08:41:42;;;;;;;22.42;19.30;;;19.70;99.90;;;;;;5071493;28;20044;-86
2023/06/17 08:44:10;;;;;;;20.67;18.67;;;19.80;99.90;;;;;;5071746;28;20501;-86
2023/06/17 08:46:36;;;;;;;23.10;20.70;;;19.80;99.90;;;;;;5054883;28;20036;-86
2023/06/17 08:49:03;;;;;;;42.17;20.90;;;19.90;99.90;;;;;;5055244;28;20040;-86
2023/06/17 08:51:29;;;;;;;23.83;18.83;;;19.90;99.90;;;;;;5071529;28;20127;-86
2023/06/17 08:53:55;;;;;;;21.38;19.17;;;20.00;99.90;;;;;;5071595;28;20047;-86
2023/06/17 08:56:21;;;;;;;23.17;20.73;;;20.10;99.90;;;;;;5071649;28;20040;-85
2023/06/17 08:58:47;;;;;;;22.13;19.83;;;20.10;99.90;;;;;;5071337;28;20093;-86
2023/06/17 09:01:14;;;;;;;22.40;19.95;;;20.10;99.90;;;;;;5054154;28;20044;-85
2023/06/17 09:03:43;;;;;;;22.17;19.10;;;20.20;99.90;;;;;;5069613;28;20045;-86
2023/06/17 09:06:18;;;;;;;20.10;17.90;;;20.20;99.90;;;;;;5071763;28;20033;-85
2023/06/17 09:08:43;;;;;;;20.70;18.55;;;20.40;99.90;;;;;;5050659;28;20115;-86
2023/06/17 09:11:09;;;;;;;22.95;19.40;;;20.40;99.90;;;;;;5053065;28;20136;-86
2023/06/17 09:13:36;;;;;;;23.58;18.65;;;20.50;99.90;;;;;;5070996;28;20047;-86
2023/06/17 09:16:02;;;;;;;21.30;19.10;;;20.60;99.90;;;;;;5071156;28;20049;-86
2023/06/17 09:18:31;;;;;;;25.45;19.63;;;20.60;99.90;;;;;;5071065;28;20467;-86
2023/06/17 09:20:57;;;;;;;19.77;17.63;;;20.60;99.90;;;;;;5070760;28;20047;-86
2023/06/17 09:23:26;;;;;;;17.88;15.98;;;20.70;99.90;;;;;;5054245;28;20088;-86
2023/06/17 09:26:02;;;;;;;21.25;18.08;;;20.80;99.90;;;;;;5054010;28;20113;-86
2023/06/17 09:28:27;;;;;;;18.90;16.95;;;20.80;99.90;;;;;;5054397;28;20037;-86
2023/06/17 09:30:56;;;;;;;18.42;16.02;;;20.90;99.90;;;;;;5070508;28;20067;-86
2023/06/17 09:33:24;;;;;;;19.17;16.17;;;20.90;99.90;;;;;;5071117;28;20530;-86
2023/06/17 09:36:01;;;;;;;17.48;15.00;;;21.00;99.90;;;;;;5071058;28;20170;-86
2023/06/17 09:38:28;;;;;;;21.30;16.40;;;21.20;99.90;;;;;;5070655;28;20040;-86
2023/06/17 09:40:54;;;;;;;18.30;16.00;;;21.20;99.90;;;;;;5070258;28;20076;-87
2023/06/17 09:43:24;;;;;;;18.38;15.27;;;21.30;99.90;;;;;;5070046;28;20127;-86
2023/06/17 09:46:02;;;;;;;18.05;15.13;;;21.40;99.90;;;;;;5070597;28;20044;-86
2023/06/17 09:48:38;;;;;;;19.33;16.13;;;21.50;99.90;;;;;;5050551;28;20033;-87
2023/06/17 09:51:09;;;;;;;20.23;16.25;;;21.60;99.90;;;;;;5050472;28;20041;-87
2023/06/17 09:53:36;;;;;;;18.63;14.68;;;21.70;99.90;;;;;;5034335;28;20044;-87
2023/06/17 09:56:02;;;;;;;19.73;15.30;;;21.80;99.90;;;;;;5050503;28;20052;-87
2023/06/17 09:58:30;;;;;;;25.63;16.55;;;21.90;99.90;;;;;;5051135;28;20064;-87
2023/06/17 10:00:57;;;;;;;18.40;16.45;;;22.00;99.90;;;;;;5051227;28;20037;-87
2023/06/17 10:03:24;;;;;;;132.95;23.85;;;22.00;99.90;;;;;;5049870;28;20049;-87
2023/06/17 10:06:11;;;;;;;25.27;15.27;;;22.00;99.90;;;;;;5050634;28;20402;-87
2023/06/17 10:08:39;;;;;;;50.85;17.38;;;22.10;99.90;;;;;;5050470;28;20120;-87
2023/06/17 10:11:05;;;;;;;20.05;14.43;;;22.20;99.90;;;;;;5047197;28;20032;-87
2023/06/17 10:13:35;;;;;;;15.80;13.48;;;22.30;99.90;;;;;;5030318;28;20102;-87
2023/06/17 10:16:04;;;;;;;17.73;14.63;;;22.40;99.90;;;;;;5046758;28;20056;-87
2023/06/17 10:18:32;;;;;;;17.13;14.77;;;22.60;99.90;;;;;;5046868;28;20094;-87
2023/06/17 10:21:00;;;;;;;15.50;13.10;;;22.60;99.90;;;;;;5046650;28;20442;-87
2023/06/17 10:23:26;;;;;;;16.27;13.15;;;22.70;99.90;;;;;;5046531;28;20045;-87
2023/06/17 10:25:53;;;;;;;15.05;13.40;;;22.90;99.90;;;;;;5046672;28;20041;-87
2023/06/17 10:28:19;;;;;;;16.88;12.23;;;23.00;99.10;;;;;;5046441;28;20037;-87
2023/06/17 10:30:46;;;;;;;16.95;12.18;;;23.10;98.70;;;;;;5046351;28;20037;-87
2023/06/17 10:33:12;;;;;;;19.42;14.13;;;23.20;99.30;;;;;;5049628;28;20044;-87
2023/06/17 10:35:39;;;;;;;16.52;12.65;;;23.40;98.50;;;;;;5050380;28;20199;-87
2023/06/17 10:38:06;;;;;;;16.52;14.07;;;23.50;97.80;;;;;;5052712;28;20044;-87
2023/06/17 10:40:35;;;;;;;16.33;13.75;;;23.50;96.00;;;;;;5053799;28;20147;-87
2023/06/17 10:43:01;;;;;;;16.27;13.07;;;23.60;94.90;;;;;;5053976;28;20056;-87
2023/06/17 10:45:31;;;;;;;17.98;14.27;;;23.60;94.80;;;;;;5054040;28;20410;-86
2023/06/17 10:48:30;;;;;;;15.27;13.52;;;23.60;94.20;;;;;;5054009;28;20053;-87
2023/06/17 10:51:08;;;;;;;16.98;12.45;;;23.70;93.90;;;;;;5049323;28;20130;-85
2023/06/17 10:53:37;;;;;;;14.18;12.32;;;23.80;93.60;;;;;;5053839;28;20174;-85
2023/06/17 10:56:09;;;;;;;16.30;13.18;;;23.90;93.50;;;;;;5039120;28;20044;-85
2023/06/17 10:58:37;;;;;;;15.85;12.00;;;23.90;91.80;;;;;;5059365;28;20076;-86
2023/06/17 11:01:05;;;;;;;15.23;11.52;;;23.90;91.40;;;;;;5071019;28;20047;-85
2023/06/17 11:03:32;;;;;;;16.00;11.57;;;24.10;92.30;;;;;;5071622;28;20518;-85
2023/06/17 11:06:01;;;;;;;14.57;11.45;;;24.20;93.30;;;;;;5073791;28;20123;-85
2023/06/17 11:08:32;;;;;;;16.55;11.07;;;24.40;91.90;;;;;;5056811;28;20028;-85
2023/06/17 11:11:08;;;;;;;12.45;10.70;;;24.50;91.50;;;;;;5056598;28;20033;-86
2023/06/17 11:13:34;;;;;;;18.90;12.65;;;24.70;91.10;;;;;;5073472;28;20166;-85
2023/06/17 11:15:59;;;;;;;14.13;11.57;;;24.70;90.50;;;;;;5073405;28;20044;-85
2023/06/17 11:18:25;;;;;;;15.27;11.18;;;24.70;89.80;;;;;;5073203;28;20039;-85
2023/06/17 11:20:51;;;;;;;14.73;9.40;;;24.70;85.50;;;;;;5073025;28;20040;-86
2023/06/17 11:23:18;;;;;;;11.45;8.88;;;24.80;86.50;;;;;;5073207;28;20040;-85
2023/06/17 11:25:43;;;;;;;12.23;9.20;;;24.80;82.20;;;;;;5056901;28;20186;-85
2023/06/17 11:28:10;;;;;;;13.45;9.52;;;24.90;81.60;;;;;;5073298;28;20558;-86
2023/06/17 11:30:36;;;;;;;12.27;9.15;;;25.00;84.10;;;;;;5056177;28;20036;-86
2023/06/17 11:33:02;;;;;;;12.93;9.27;;;25.20;84.80;;;;;;5056615;28;20052;-86
2023/06/17 11:35:27;;;;;;;13.95;10.60;;;25.30;83.80;;;;;;5072856;28;20036;-85
2023/06/17 11:37:54;;;;;;;12.73;8.90;;;25.50;82.20;;;;;;5056497;28;20044;-86
2023/06/17 11:40:22;;;;;;;12.63;8.38;;;25.60;82.00;;;;;;5072653;28;20127;-86
2023/06/17 11:42:48;;;;;;;12.77;8.75;;;25.70;77.30;;;;;;5056198;28;20040;-86
2023/06/17 11:45:14;;;;;;;13.70;8.77;;;25.70;76.20;;;;;;5052729;28;20033;-85
2023/06/17 11:47:40;;;;;;;12.20;8.10;;;25.80;76.30;;;;;;5052190;28;20045;-86
2023/06/17 11:50:06;;;;;;;13.90;8.77;;;25.80;75.70;;;;;;5035888;28;20041;-86
2023/06/17 11:52:35;;;;;;;13.40;8.27;;;26.00;76.90;;;;;;5052738;28;20037;-86
2023/06/17 11:55:02;;;;;;;19.88;8.13;;;26.00;75.20;;;;;;5052796;28;20041;-86
2023/06/17 11:57:28;;;;;;;13.68;7.22;;;26.20;76.50;;;;;;5052856;28;20399;-86
2023/06/17 12:00:04;;;;;;;13.10;7.38;;;26.30;77.50;;;;;;5035850;28;20499;-86
2023/06/17 12:02:33;;;;;;;11.75;7.47;;;26.60;76.80;;;;;;5052734;28;20048;-86
2023/06/17 12:05:01;;;;;;;10.55;7.88;;;26.70;75.00;;;;;;5052556;28;20487;-86
2023/06/17 12:07:27;;;;;;;10.07;7.28;;;26.90;73.80;;;;;;5052663;28;20033;-87
2023/06/17 12:09:54;;;;;;;12.13;7.15;;;26.90;71.90;;;;;;5052462;28;20036;-87
2023/06/17 12:12:32;;;;;;;11.23;6.60;;;27.00;72.00;;;;;;5052861;28;20107;-86
2023/06/17 12:15:06;;;;;;;10.43;7.03;;;27.20;72.80;;;;;;5052703;28;20051;-87
2023/06/17 12:17:40;;;;;;;12.55;7.80;;;27.40;72.90;;;;;;5052715;28;20124;-86
2023/06/17 12:20:12;;;;;;;11.68;6.60;;;27.60;72.60;;;;;;5052274;28;20075;-87
2023/06/17 12:22:38;;;;;;;13.98;7.20;;;27.70;70.30;;;;;;5052510;28;20037;-86
2023/06/17 12:25:05;;;;;;;9.25;6.18;;;27.70;70.70;;;;;;5052128;28;20414;-87
2023/06/17 12:27:32;;;;;;;11.32;6.40;;;27.90;70.70;;;;;;5052290;28;20384;-87